createdAt,value
2023-04-19T00:00:21.304Z,92.64
2023-04-19T00:02:50.773Z,92.06
2023-04-19T00:05:18.908Z,93.23
2023-04-19T00:07:47.106Z,93.22
2023-04-19T00:10:14.886Z,94.32
2023-04-19T00:12:42.642Z,93.76
2023-04-19T00:15:11.048Z,93.71
2023-04-19T00:17:39.177Z,94.12
2023-04-19T00:20:09.936Z,95.40
2023-04-19T00:22:37.707Z,95.30
2023-04-19T00:25:06.094Z,93.82
2023-04-19T00:27:33.923Z,94.49
2023-04-19T00:30:02.483Z,92.98
2023-04-19T00:32:32.242Z,93.09
2023-04-19T00:35:00.095Z,92.84
2023-04-19T00:37:29.570Z,93.39
2023-04-19T00:39:57.293Z,93.80
2023-04-19T00:42:25.069Z,95.14
2023-04-19T00:44:52.862Z,94.27
2023-04-19T00:47:20.902Z,94.83
2023-04-19T00:49:48.700Z,94.20
2023-04-19T00:52:17.577Z,95.45
2023-04-19T00:54:46.878Z,96.40
2023-04-19T00:57:15.007Z,94.90
2023-04-19T00:59:43.377Z,95.06
2023-04-19T01:02:11.326Z,95.50
2023-04-19T01:04:39.191Z,96.95
2023-04-19T01:07:07.368Z,98.24
2023-04-19T01:09:35.810Z,99.06
2023-04-19T01:12:05.310Z,97.85
2023-04-19T01:14:33.010Z,96.07
2023-04-19T01:17:00.752Z,97.00
2023-04-19T01:19:28.464Z,97.18
2023-04-19T01:21:58.302Z,97.22
2023-04-19T01:24:28.111Z,96.40
2023-04-19T01:26:56.243Z,96.96
2023-04-19T01:29:24.050Z,95.07
2023-04-19T01:31:53.858Z,95.44
2023-04-19T01:34:23.138Z,94.50
2023-04-19T01:36:51.064Z,95.52
2023-04-19T01:39:18.811Z,95.41
2023-04-19T01:41:47.953Z,96.55
2023-04-19T01:44:16.004Z,98.26
2023-04-19T01:46:44.064Z,99.07
2023-04-19T01:49:11.871Z,100.00
2023-04-19T01:51:40.357Z,99.10
2023-04-19T01:54:08.069Z,99.77
2023-04-19T01:56:36.274Z,98.05
2023-04-19T01:59:05.395Z,96.99
2023-04-19T02:01:33.242Z,97.14
2023-04-19T02:04:01.360Z,98.32
2023-04-19T02:06:29.337Z,97.13
2023-04-19T02:08:57.110Z,96.56
2023-04-19T02:11:24.879Z,96.97
2023-04-19T02:13:52.616Z,97.69
2023-04-19T02:16:21.853Z,96.11
2023-04-19T02:18:52.067Z,94.84
2023-04-19T02:21:19.973Z,94.96
2023-04-19T02:23:48.526Z,95.95
2023-04-19T02:26:16.493Z,96.60
2023-04-19T02:28:44.467Z,95.48
2023-04-19T02:31:13.832Z,96.89
2023-04-19T02:33:43.025Z,94.79
2023-04-19T02:36:12.174Z,95.82
2023-04-19T02:38:39.898Z,96.97
2023-04-19T02:41:07.627Z,97.04
2023-04-19T02:43:35.435Z,97.49
2023-04-19T02:46:03.375Z,97.64
2023-04-19T02:48:31.169Z,98.21
2023-04-19T02:51:00.838Z,99.15
2023-04-19T02:53:28.908Z,97.80
2023-04-19T02:55:56.875Z,99.21
2023-04-19T02:58:24.737Z,99.82
2023-04-19T03:01:03.563Z,99.40
2023-04-19T03:03:31.869Z,100.00
2023-04-19T03:06:01.124Z,99.73
2023-04-19T03:08:29.985Z,98.80
2023-04-19T03:10:57.750Z,99.81
2023-04-19T03:13:25.479Z,100.00
2023-04-19T03:15:53.667Z,100.00
2023-04-19T03:18:23.679Z,100.00
2023-04-19T03:20:53.345Z,99.77
2023-04-19T03:23:23.248Z,100.00
2023-04-19T03:25:52.031Z,100.00
2023-04-19T03:28:34.196Z,100.00
2023-04-19T03:31:17.623Z,100.00
2023-04-19T03:33:47.697Z,100.00
2023-04-19T03:36:15.827Z,100.00
2023-04-19T03:38:47.341Z,100.00
2023-04-19T03:41:20.356Z,100.00
2023-04-19T03:43:49.955Z,100.00
2023-04-19T03:46:17.747Z,100.00
2023-04-19T03:48:45.644Z,100.00
2023-04-19T03:51:15.872Z,100.00
2023-04-19T03:53:43.927Z,100.00
2023-04-19T03:56:13.050Z,100.00
2023-04-19T03:58:42.707Z,100.00
2023-04-19T04:01:19.008Z,100.00
2023-04-19T04:03:47.184Z,100.00
2023-04-19T04:06:15.333Z,100.00
2023-04-19T04:08:43.357Z,100.00
2023-04-19T04:11:11.385Z,100.00
2023-04-19T04:13:40.487Z,100.00
2023-04-19T04:16:21.005Z,100.00
2023-04-19T04:18:50.248Z,100.00
2023-04-19T04:21:18.679Z,100.00
2023-04-19T04:23:49.948Z,100.00
2023-04-19T04:26:51.438Z,100.00
2023-04-19T04:29:24.639Z,100.00
2023-04-19T04:31:56.902Z,100.00
2023-04-19T04:34:29.320Z,100.00
2023-04-19T04:37:05.817Z,100.00
2023-04-19T04:39:38.969Z,100.00
2023-04-19T04:42:09.004Z,100.00
2023-04-19T04:44:38.860Z,100.00
2023-04-19T04:47:08.166Z,100.00
2023-04-19T04:49:42.413Z,100.00
2023-04-19T04:52:10.264Z,100.00
2023-04-19T04:54:48.080Z,100.00
2023-04-19T04:57:25.812Z,100.00
2023-04-19T04:59:56.370Z,100.00
2023-04-19T05:02:27.050Z,100.00
2023-04-19T05:04:55.130Z,100.00
2023-04-19T05:07:22.949Z,100.00
2023-04-19T05:09:51.367Z,100.00
2023-04-19T05:12:24.635Z,100.00
2023-04-19T05:14:53.284Z,100.00
2023-04-19T05:17:22.736Z,100.00
2023-04-19T05:19:51.104Z,100.00
2023-04-19T05:22:18.966Z,100.00
2023-04-19T05:24:47.258Z,100.00
2023-04-19T05:27:16.400Z,99.30
2023-04-19T05:29:44.418Z,98.19
2023-04-19T05:32:12.323Z,98.65
2023-04-19T05:34:47.919Z,96.76
2023-04-19T05:37:17.003Z,95.98
2023-04-19T05:39:45.016Z,97.57
2023-04-19T05:42:12.812Z,95.50
2023-04-19T05:44:40.548Z,95.22
2023-04-19T05:47:09.086Z,94.92
2023-04-19T05:49:57.645Z,94.77
2023-04-19T05:52:32.733Z,94.21
2023-04-19T05:55:01.988Z,92.44
2023-04-19T05:57:31.081Z,92.25
2023-04-19T06:02:41.409Z,91.16
2023-04-19T06:05:14.015Z,92.34
2023-04-19T06:07:47.323Z,90.26
2023-04-19T06:10:22.193Z,91.68
2023-04-19T06:12:49.953Z,89.53
2023-04-19T06:15:17.774Z,89.11
2023-04-19T06:17:45.739Z,88.53
2023-04-19T06:20:15.737Z,88.39
2023-04-19T06:22:44.972Z,88.65
2023-04-19T06:25:12.912Z,88.00
2023-04-19T06:27:40.656Z,86.77
2023-04-19T06:30:09.287Z,87.92
2023-04-19T06:32:37.099Z,86.43
2023-04-19T06:35:06.066Z,88.04
2023-04-19T06:37:35.857Z,86.82
2023-04-19T06:40:04.876Z,86.27
2023-04-19T06:42:32.599Z,84.93
2023-04-19T06:45:01.385Z,84.27
2023-04-19T06:47:30.177Z,84.69
2023-04-19T06:49:58.627Z,83.29
2023-04-19T06:52:26.458Z,82.86
2023-04-19T06:54:55.571Z,83.59
2023-04-19T06:57:23.258Z,81.83
2023-04-19T06:59:51.058Z,83.01
2023-04-19T07:02:18.829Z,80.31
2023-04-19T07:04:47.635Z,80.04
2023-04-19T07:07:15.628Z,81.27
2023-04-19T07:09:43.408Z,80.15
2023-04-19T07:12:12.850Z,80.86
2023-04-19T07:14:40.605Z,80.26
2023-04-19T07:17:08.305Z,80.37
2023-04-19T07:19:36.557Z,79.51
2023-04-19T07:22:06.125Z,80.06
2023-04-19T07:24:33.985Z,80.02
2023-04-19T07:27:01.828Z,77.95
2023-04-19T07:29:31.218Z,80.87
2023-04-19T07:32:01.422Z,78.64
2023-04-19T07:34:29.144Z,79.04
2023-04-19T07:36:57.254Z,79.48
2023-04-19T07:39:25.009Z,80.03
2023-04-19T07:41:52.765Z,77.33
2023-04-19T07:44:20.629Z,75.82
2023-04-19T07:46:49.883Z,77.68
2023-04-19T07:49:17.782Z,75.83
2023-04-19T07:51:45.646Z,76.77
2023-04-19T07:54:13.494Z,76.92
2023-04-19T07:56:41.680Z,74.54
2023-04-19T07:59:09.742Z,75.42
2023-04-19T08:01:37.971Z,73.90
2023-04-19T08:04:08.068Z,73.25
2023-04-19T08:06:39.787Z,73.42
2023-04-19T08:09:07.833Z,73.04
2023-04-19T08:11:36.308Z,76.15
2023-04-19T08:14:12.002Z,75.08
2023-04-19T08:17:19.388Z,74.78
2023-04-19T08:19:31.776Z,73.79
2023-04-19T08:21:59.583Z,76.15
2023-04-19T08:24:27.766Z,72.15
2023-04-19T08:26:57.075Z,70.94
2023-04-19T08:29:26.492Z,71.53
2023-04-19T08:31:54.218Z,68.71
2023-04-19T08:34:21.917Z,70.06
2023-04-19T08:37:02.798Z,68.27
2023-04-19T08:39:34.178Z,67.40
2023-04-19T08:42:11.117Z,65.15
2023-04-19T08:47:29.209Z,64.01
2023-04-19T08:50:16.778Z,62.48
2023-04-19T08:52:56.173Z,63.79
2023-04-19T08:55:29.453Z,63.67
2023-04-19T08:57:58.646Z,62.96
2023-04-19T09:00:26.678Z,62.99
2023-04-19T09:02:55.887Z,61.86
2023-04-19T09:05:24.024Z,61.99
2023-04-19T09:07:53.363Z,61.08
2023-04-19T09:10:22.529Z,59.86
2023-04-19T09:13:03.765Z,59.46
2023-04-19T09:15:39.369Z,60.30
2023-04-19T09:18:09.891Z,60.62
2023-04-19T09:20:38.644Z,61.05
2023-04-19T09:23:10.098Z,60.84
2023-04-19T09:25:55.319Z,59.44
2023-04-19T09:28:25.660Z,57.96
2023-04-19T09:33:33.062Z,57.11
2023-04-19T09:36:01.393Z,55.90
2023-04-19T09:38:30.585Z,56.75
2023-04-19T09:41:08.422Z,56.55
2023-04-19T09:43:58.975Z,57.05
2023-04-19T09:46:35.081Z,56.47
2023-04-19T09:49:24.962Z,56.10
2023-04-19T09:51:58.835Z,56.09
2023-04-19T09:54:29.898Z,54.96
2023-04-19T09:56:59.518Z,55.57
2023-04-19T09:59:28.740Z,53.59
2023-04-19T10:01:57.006Z,54.67
2023-04-19T10:04:38.278Z,54.65
2023-04-19T10:12:40.679Z,53.38
2023-04-19T10:15:10.363Z,53.39
2023-04-19T10:17:38.382Z,53.12
2023-04-19T10:20:10.773Z,53.77
2023-04-19T10:22:39.641Z,52.77
2023-04-19T10:25:13.825Z,51.32
2023-04-19T10:27:48.876Z,50.81
2023-04-19T10:30:21.055Z,48.79
2023-04-19T10:32:57.106Z,47.61
2023-04-19T10:35:26.945Z,47.84
2023-04-19T10:38:09.019Z,47.28
2023-04-19T10:40:57.362Z,46.52
2023-04-19T10:43:26.165Z,44.96
2023-04-19T10:45:54.525Z,45.17
2023-04-19T10:48:43.789Z,44.55
2023-04-19T10:51:15.382Z,43.35
2023-04-19T10:53:59.490Z,44.66
2023-04-19T10:57:04.549Z,44.08
2023-04-19T10:59:33.947Z,42.67
2023-04-19T11:02:03.254Z,42.06
2023-04-19T11:05:02.127Z,41.93
2023-04-19T11:07:29.910Z,40.69
2023-04-19T11:09:57.589Z,40.00
2023-04-19T11:12:26.655Z,40.44
2023-04-19T11:14:59.750Z,39.98
2023-04-19T11:17:29.403Z,39.66
2023-04-19T11:19:58.945Z,39.41
2023-04-19T11:22:31.154Z,38.62
2023-04-19T11:25:05.712Z,38.79
2023-04-19T11:27:35.399Z,38.79
2023-04-19T11:30:05.596Z,37.01
2023-04-19T11:32:34.037Z,36.54
2023-04-19T11:35:06.482Z,36.45
2023-04-19T11:37:36.212Z,35.62
2023-04-19T11:40:06.490Z,36.33
2023-04-19T11:42:35.886Z,35.36
2023-04-19T11:45:04.234Z,35.41
2023-04-19T11:47:33.776Z,35.32
2023-04-19T11:50:31.895Z,33.90
2023-04-19T11:53:00.001Z,34.97
2023-04-19T11:55:27.695Z,34.51
2023-04-19T11:57:57.396Z,34.15
2023-04-19T12:00:29.145Z,34.11
2023-04-19T12:02:57.272Z,33.66
2023-04-19T12:05:25.378Z,33.81
2023-04-19T12:08:03.940Z,34.72
2023-04-19T12:10:32.173Z,34.40
2023-04-19T12:13:01.490Z,34.69
2023-04-19T12:15:42.880Z,33.28
2023-04-19T12:18:10.713Z,34.85
2023-04-19T12:20:44.631Z,34.77
2023-04-19T12:23:13.996Z,33.64
2023-04-19T12:25:42.194Z,33.33
2023-04-19T12:28:11.605Z,33.49
2023-04-19T12:30:39.732Z,33.85
2023-04-19T12:33:08.266Z,35.25
2023-04-19T12:35:37.338Z,33.18
2023-04-19T12:38:05.214Z,30.21
2023-04-19T12:40:33.546Z,31.51
2023-04-19T12:43:01.301Z,30.30
2023-04-19T12:45:30.563Z,29.18
2023-04-19T12:47:58.317Z,29.49
2023-04-19T12:50:26.176Z,29.67
2023-04-19T12:52:54.333Z,30.12
2023-04-19T12:55:22.129Z,28.32
2023-04-19T12:57:50.025Z,27.75
2023-04-19T13:00:18.309Z,27.23
2023-04-19T13:02:48.337Z,27.34
2023-04-19T13:05:16.403Z,26.46
2023-04-19T13:07:44.150Z,28.36
2023-04-19T13:10:12.439Z,27.54
2023-04-19T13:12:40.802Z,27.34
2023-04-19T13:15:10.167Z,26.89
2023-04-19T13:17:38.093Z,26.38
2023-04-19T13:20:09.481Z,27.23
2023-04-19T13:22:37.413Z,27.30
2023-04-19T13:25:05.537Z,26.83
2023-04-19T13:27:33.272Z,27.62
2023-04-19T13:30:03.544Z,26.56
2023-04-19T13:32:31.432Z,26.69
2023-04-19T13:34:59.258Z,26.54
2023-04-19T13:37:28.404Z,25.52
2023-04-19T13:40:07.043Z,25.99
2023-04-19T13:42:38.931Z,25.92
2023-04-19T13:45:07.885Z,26.31
2023-04-19T13:47:35.721Z,26.23
2023-04-19T13:50:03.516Z,26.21
2023-04-19T13:52:32.687Z,26.92
2023-04-19T13:55:00.577Z,26.88
2023-04-19T13:57:28.338Z,27.30
2023-04-19T13:59:56.073Z,27.71
2023-04-19T14:02:24.192Z,28.12
2023-04-19T14:04:51.991Z,28.80
2023-04-19T14:07:19.822Z,28.90
2023-04-19T14:09:49.005Z,28.65
2023-04-19T14:12:16.762Z,28.65
2023-04-19T14:14:44.600Z,29.20
2023-04-19T14:17:12.596Z,29.83
2023-04-19T14:19:40.339Z,29.96
2023-04-19T14:22:08.064Z,29.95
2023-04-19T14:24:35.823Z,29.63
2023-04-19T14:27:11.049Z,29.61
2023-04-19T14:29:39.482Z,29.73
2023-04-19T14:32:21.528Z,30.29
2023-04-19T14:34:53.489Z,29.16
2023-04-19T14:37:25.266Z,29.99
2023-04-19T14:39:53.493Z,28.85
2023-04-19T14:42:25.995Z,29.75
2023-04-19T14:44:53.734Z,29.73
2023-04-19T14:47:21.918Z,29.78
2023-04-19T14:49:49.747Z,30.01
2023-04-19T14:52:18.028Z,30.53
2023-04-19T14:54:46.145Z,30.18
2023-04-19T14:57:14.306Z,30.93
2023-04-19T14:59:43.496Z,31.02
2023-04-19T15:02:13.415Z,31.14
2023-04-19T15:04:42.413Z,29.97
2023-04-19T15:07:10.598Z,30.63
2023-04-19T15:09:38.341Z,31.29
2023-04-19T15:12:06.213Z,32.36
2023-04-19T15:14:33.960Z,31.57
2023-04-19T15:17:04.051Z,32.87
2023-04-19T15:19:32.251Z,32.50
2023-04-19T15:22:00.041Z,31.75
2023-04-19T15:24:27.835Z,32.32
2023-04-19T15:26:56.621Z,33.39
2023-04-19T15:29:24.513Z,32.85
2023-04-19T15:31:52.323Z,32.22
2023-04-19T15:34:21.479Z,33.25
2023-04-19T15:36:49.200Z,31.67
2023-04-19T15:39:17.052Z,32.34
2023-04-19T15:41:44.925Z,32.80
2023-04-19T15:44:12.736Z,33.55
2023-04-19T15:46:40.529Z,32.36
2023-04-19T15:49:08.344Z,33.02
2023-04-19T15:51:38.318Z,33.51
2023-04-19T15:54:06.326Z,32.12
2023-04-19T15:56:34.063Z,32.83
2023-04-19T15:59:02.051Z,32.54
2023-04-19T16:01:29.828Z,32.35
2023-04-19T16:03:57.712Z,32.87
2023-04-19T16:06:25.584Z,32.56
2023-04-19T16:08:54.652Z,32.02
2023-04-19T16:11:23.736Z,33.48
2023-04-19T16:13:51.438Z,32.82
2023-04-19T16:16:19.196Z,33.01
2023-04-19T16:18:47.468Z,31.99
2023-04-19T16:21:15.274Z,31.04
2023-04-19T16:23:43.379Z,31.84
2023-04-19T16:26:12.501Z,32.72
2023-04-19T16:28:40.501Z,32.72
2023-04-19T16:31:08.266Z,31.41
2023-04-19T16:33:36.079Z,32.93
2023-04-19T16:36:03.899Z,32.39
2023-04-19T16:38:31.686Z,33.32
2023-04-19T16:41:01.488Z,32.86
2023-04-19T16:43:30.662Z,32.88
2023-04-19T16:45:58.420Z,34.03
2023-04-19T16:48:27.632Z,34.28
2023-04-19T16:50:55.409Z,32.87
2023-04-19T16:53:23.268Z,33.69
2023-04-19T16:55:50.998Z,33.77
2023-04-19T16:58:18.785Z,33.99
2023-04-19T17:00:48.267Z,33.60
2023-04-19T17:03:16.616Z,32.62
2023-04-19T17:05:44.510Z,32.65
2023-04-19T17:08:12.256Z,32.93
2023-04-19T17:10:44.673Z,33.26
2023-04-19T17:13:12.393Z,32.83
2023-04-19T17:15:40.608Z,32.76
2023-04-19T17:18:09.715Z,32.84
2023-04-19T17:20:37.545Z,33.59
2023-04-19T17:23:05.243Z,34.37
2023-04-19T17:25:33.127Z,33.95
2023-04-19T17:28:01.320Z,32.67
2023-04-19T17:30:29.482Z,32.71
2023-04-19T17:32:57.229Z,32.82
2023-04-19T17:35:27.241Z,33.15
2023-04-19T17:37:55.085Z,32.60
2023-04-19T17:40:22.881Z,33.40
2023-04-19T17:42:50.755Z,32.76
2023-04-19T17:45:18.692Z,32.73
2023-04-19T17:47:46.477Z,32.97
2023-04-19T17:50:15.146Z,31.46
2023-04-19T17:52:44.159Z,32.70
2023-04-19T17:55:11.923Z,32.46
2023-04-19T17:57:40.078Z,31.62
2023-04-19T18:00:10.773Z,33.52
2023-04-19T18:02:38.689Z,34.82
2023-04-19T18:05:07.478Z,36.26
2023-04-19T18:07:36.706Z,36.37
2023-04-19T18:10:06.827Z,35.78
2023-04-19T18:12:34.678Z,35.52
2023-04-19T18:15:02.554Z,36.48
2023-04-19T18:17:31.223Z,35.14
2023-04-19T18:19:58.976Z,36.11
2023-04-19T18:22:26.768Z,36.20
2023-04-19T18:24:54.531Z,36.35
2023-04-19T18:27:23.690Z,35.31
2023-04-19T18:29:51.910Z,36.66
2023-04-19T18:32:21.724Z,36.34
2023-04-19T18:34:49.673Z,37.37
2023-04-19T18:37:18.224Z,37.17
2023-04-19T18:39:46.628Z,37.20
2023-04-19T18:42:14.408Z,36.87
2023-04-19T18:44:53.552Z,37.39
2023-04-19T18:47:22.457Z,38.50
2023-04-19T18:50:03.608Z,37.96
2023-04-19T18:52:34.011Z,37.52
2023-04-19T18:55:01.795Z,38.55
2023-04-19T18:57:34.218Z,38.61
2023-04-19T19:00:06.538Z,38.96
2023-04-19T19:02:36.060Z,39.35
2023-04-19T19:05:07.416Z,39.21
2023-04-19T19:07:37.222Z,39.72
2023-04-19T19:10:18.487Z,40.98
2023-04-19T19:12:48.629Z,40.82
2023-04-19T19:15:17.894Z,41.39
2023-04-19T19:17:49.432Z,40.81
2023-04-19T19:20:18.557Z,40.33
2023-04-19T19:22:46.487Z,40.39
2023-04-19T19:25:14.319Z,41.50
2023-04-19T19:27:53.059Z,41.37
2023-04-19T19:30:33.660Z,42.11
2023-04-19T19:33:02.345Z,41.35
2023-04-19T19:35:30.153Z,42.61
2023-04-19T19:37:57.899Z,41.90
2023-04-19T19:40:25.586Z,42.15
2023-04-19T19:42:53.249Z,42.15
2023-04-19T19:45:21.368Z,41.41
2023-04-19T19:47:50.929Z,41.50
2023-04-19T19:52:50.834Z,40.90
2023-04-19T19:55:18.633Z,41.63
2023-04-19T20:00:41.868Z,40.41
2023-04-19T20:03:07.071Z,42.32
2023-04-19T20:05:35.412Z,42.57
2023-04-19T20:08:08.784Z,42.92
2023-04-19T20:10:37.973Z,42.49
2023-04-19T20:13:06.965Z,42.90
2023-04-19T20:15:35.445Z,42.92
2023-04-19T20:18:03.510Z,43.25
2023-04-19T20:20:33.196Z,43.22
2023-04-19T20:23:00.981Z,44.99
2023-04-19T20:25:31.094Z,44.41
2023-04-19T20:27:59.168Z,44.75
2023-04-19T20:30:26.942Z,44.59
2023-04-19T20:32:54.787Z,44.28
2023-04-19T20:35:23.185Z,44.29
2023-04-19T20:37:52.327Z,44.29
2023-04-19T20:40:20.069Z,44.68
2023-04-19T20:42:47.822Z,45.22
2023-04-19T20:45:15.557Z,46.04
2023-04-19T20:47:43.435Z,45.00
2023-04-19T20:50:11.677Z,44.60
2023-04-19T20:52:39.743Z,45.02
2023-04-19T20:55:10.022Z,45.48
2023-04-19T20:57:37.799Z,44.95
2023-04-19T21:00:08.072Z,45.07
2023-04-19T21:02:35.928Z,46.33
2023-04-19T21:05:03.773Z,46.01
2023-04-19T21:07:31.551Z,45.74
2023-04-19T21:09:59.251Z,46.72
2023-04-19T21:12:28.544Z,45.75
2023-04-19T21:14:56.252Z,45.40
2023-04-19T21:17:24.077Z,46.61
2023-04-19T21:19:51.817Z,46.31
2023-04-19T21:22:19.593Z,45.86
2023-04-19T21:24:47.340Z,46.23
2023-04-19T21:27:15.134Z,46.21
2023-04-19T21:29:44.309Z,47.17
2023-04-19T21:32:12.089Z,46.86
2023-04-19T21:34:39.906Z,46.26
2023-04-19T21:37:07.706Z,45.57
2023-04-19T21:39:35.489Z,46.80
2023-04-19T21:42:03.479Z,46.37
2023-04-19T21:44:31.265Z,47.57
2023-04-19T21:47:00.386Z,46.29
2023-04-19T21:49:28.125Z,47.71
2023-04-19T21:51:56.861Z,46.56
2023-04-19T21:54:33.418Z,47.67
2023-04-19T21:57:02.521Z,47.72
2023-04-19T21:59:30.556Z,47.40
2023-04-19T22:02:00.834Z,46.59
2023-04-19T22:04:30.895Z,46.66
2023-04-19T22:07:02.157Z,46.44
2023-04-19T22:09:30.607Z,46.75
2023-04-19T22:11:58.471Z,46.73
2023-04-19T22:14:26.202Z,46.47
2023-04-19T22:16:54.996Z,46.47
2023-04-19T22:19:24.762Z,46.50
2023-04-19T22:21:53.425Z,46.05
2023-04-19T22:24:21.833Z,45.65
2023-04-19T22:26:51.043Z,46.35
2023-04-19T22:29:19.070Z,47.82
2023-04-19T22:31:47.101Z,46.83
2023-04-19T22:34:14.906Z,48.13
2023-04-19T22:36:43.995Z,47.83
2023-04-19T22:39:11.710Z,46.88
2023-04-19T22:41:39.425Z,48.11
2023-04-19T22:44:07.164Z,48.53
2023-04-19T22:46:34.891Z,47.10
2023-04-19T22:49:03.378Z,47.04
2023-04-19T22:51:31.279Z,47.21
2023-04-19T22:54:00.557Z,48.03
2023-04-19T22:56:28.344Z,46.52
2023-04-19T22:58:56.041Z,46.66
2023-04-19T23:01:23.912Z,47.12
2023-04-19T23:03:51.651Z,46.70
2023-04-19T23:06:19.463Z,46.72
2023-04-19T23:08:47.280Z,48.03
2023-04-19T23:11:16.351Z,47.69
2023-04-19T23:13:44.373Z,47.79
2023-04-19T23:16:12.788Z,47.64
2023-04-19T23:18:40.644Z,49.33
2023-04-19T23:21:08.596Z,49.59
2023-04-19T23:23:36.460Z,50.09
2023-04-19T23:26:04.183Z,49.81
2023-04-19T23:28:33.336Z,49.11
2023-04-19T23:31:01.126Z,50.75
2023-04-19T23:33:28.790Z,50.56
2023-04-19T23:35:56.499Z,50.75
2023-04-19T23:38:24.201Z,49.82
2023-04-19T23:40:51.982Z,51.42
2023-04-19T23:43:19.761Z,49.63
2023-04-19T23:45:48.865Z,49.23
2023-04-19T23:48:17.442Z,50.50
2023-04-19T23:50:45.665Z,48.97
2023-04-19T23:53:13.408Z,47.53
2023-04-19T23:55:41.249Z,48.15
2023-04-19T23:58:08.973Z,47.44
